Portada
METAR-TAF:

METAR-TAF

Aeropuertos :

Base Aérea de Getafe

Madrid-Getafe, España

latitud: 40-18N, longitud: 003-43W, altitud: 620 m

Observación

El informe se hizo hace 6 horas y 4 minutos, a las 20:00 UTC
Viento 6 kt del oeste
Temperatura 30°C
Humedad 24%
Presión 1015 hPa
Visibilidad 10 km o más
sin nubes por debajo de 1500 m y sin presencia de cumulonimbus.

METAR: LEGT 182000Z 27006KT CAVOK 30/07 Q1015

Hora: 04:04 (02:04 UTC)

Pronóstico

El informe se hizo hace 9 horas y 4 minutos, a las 17:00 UTC
Pronóstico válido del 18 a las 18 UTC al 19 a las 03 UTC
Viento 11 kt del oeste-suroeste
Visibilidad 10 km o más
sin nubes por debajo de 1500 m y sin presencia de cumulonimbus.
Probabilidad 30% :
Temporalmente
del 18 a las 18 UTC al 18 a las 19 UTC
Viento 15 kt del oeste-suroeste con ráfagas de 25 kt

TAF: LEGT 181700Z 1818/1903 24011KT CAVOK PROB30 TEMPO 1818/1819 24015G25KT

Observaciones y pronósticos meteorológicos de más de 4000 aeropuertos (mensajes METAR y TAF).

Los puntos amarillos y rojos representan las estaciones disponibles.

Ponga el ratón en el punto deseado para ver el nombre de la estación.

Haga clic para ver las observaciones y los pronósticos meteorológicos.

Para cambiar el mapa : haga clic en los botones verdes con una cruz de color negro para hacer un zoom, en el botón verde con un guión para alejar o en las flechas verdes para mapas adyacentes.


METAR-TAF: